sensor_id;sensor_type;location;lat;lon;timestamp;P1;durP1;ratioP1;P2;durP2;ratioP2
32826;SDS011;51059;42.058;27.986;2023-09-07T00:01:55;19.45;;;8.30;;
32826;SDS011;51059;42.058;27.986;2023-09-07T00:04:21;14.18;;;6.95;;
32826;SDS011;51059;42.058;27.986;2023-09-07T00:06:48;13.75;;;8.13;;
32826;SDS011;51059;42.058;27.986;2023-09-07T00:09:15;12.70;;;7.50;;
32826;SDS011;51059;42.058;27.986;2023-09-07T00:11:44;13.57;;;7.78;;
32826;SDS011;51059;42.058;27.986;2023-09-07T00:14:11;18.25;;;7.75;;
32826;SDS011;51059;42.058;27.986;2023-09-07T00:16:39;16.60;;;7.55;;
32826;SDS011;51059;42.058;27.986;2023-09-07T00:19:05;10.52;;;7.40;;
32826;SDS011;51059;42.058;27.986;2023-09-07T00:21:31;16.17;;;7.53;;
32826;SDS011;51059;42.058;27.986;2023-09-07T00:23:57;13.60;;;7.30;;
32826;SDS011;51059;42.058;27.986;2023-09-07T00:26:23;16.70;;;7.38;;
32826;SDS011;51059;42.058;27.986;2023-09-07T00:28:49;10.63;;;6.72;;
32826;SDS011;51059;42.058;27.986;2023-09-07T00:31:14;10.50;;;6.60;;
32826;SDS011;51059;42.058;27.986;2023-09-07T00:33:40;13.80;;;6.97;;
32826;SDS011;51059;42.058;27.986;2023-09-07T00:36:06;10.40;;;6.90;;
32826;SDS011;51059;42.058;27.986;2023-09-07T00:38:32;9.43;;;6.75;;
32826;SDS011;51059;42.058;27.986;2023-09-07T00:40:58;13.52;;;7.50;;
32826;SDS011;51059;42.058;27.986;2023-09-07T00:43:24;11.70;;;7.23;;
32826;SDS011;51059;42.058;27.986;2023-09-07T00:45:50;10.40;;;6.70;;
32826;SDS011;51059;42.058;27.986;2023-09-07T00:48:17;10.85;;;7.00;;
32826;SDS011;51059;42.058;27.986;2023-09-07T00:50:43;14.70;;;7.77;;
32826;SDS011;51059;42.058;27.986;2023-09-07T00:53:10;10.70;;;6.93;;
32826;SDS011;51059;42.058;27.986;2023-09-07T00:55:36;15.30;;;7.53;;
32826;SDS011;51059;42.058;27.986;2023-09-07T00:58:04;16.52;;;7.65;;
32826;SDS011;51059;42.058;27.986;2023-09-07T01:00:30;14.33;;;7.20;;
32826;SDS011;51059;42.058;27.986;2023-09-07T01:02:57;15.52;;;8.18;;
32826;SDS011;51059;42.058;27.986;2023-09-07T01:05:24;18.83;;;8.97;;
32826;SDS011;51059;42.058;27.986;2023-09-07T01:08:04;15.85;;;8.30;;
32826;SDS011;51059;42.058;27.986;2023-09-07T01:10:38;13.68;;;8.35;;
32826;SDS011;51059;42.058;27.986;2023-09-07T01:13:04;15.18;;;7.53;;
32826;SDS011;51059;42.058;27.986;2023-09-07T01:15:29;14.90;;;8.50;;
32826;SDS011;51059;42.058;27.986;2023-09-07T01:17:55;14.63;;;7.60;;
32826;SDS011;51059;42.058;27.986;2023-09-07T01:20:22;14.40;;;7.72;;
32826;SDS011;51059;42.058;27.986;2023-09-07T01:22:48;17.73;;;7.72;;
32826;SDS011;51059;42.058;27.986;2023-09-07T01:25:15;16.95;;;7.80;;
32826;SDS011;51059;42.058;27.986;2023-09-07T01:27:41;16.23;;;7.82;;
32826;SDS011;51059;42.058;27.986;2023-09-07T01:30:08;16.33;;;8.50;;
32826;SDS011;51059;42.058;27.986;2023-09-07T01:32:34;12.88;;;7.80;;
32826;SDS011;51059;42.058;27.986;2023-09-07T01:35:01;13.00;;;7.85;;
32826;SDS011;51059;42.058;27.986;2023-09-07T01:37:31;16.33;;;7.45;;
32826;SDS011;51059;42.058;27.986;2023-09-07T01:40:00;12.52;;;6.82;;
32826;SDS011;51059;42.058;27.986;2023-09-07T01:42:26;14.98;;;7.53;;
32826;SDS011;51059;42.058;27.986;2023-09-07T01:44:53;18.60;;;8.07;;
32826;SDS011;51059;42.058;27.986;2023-09-07T01:47:19;12.52;;;7.20;;
32826;SDS011;51059;42.058;27.986;2023-09-07T01:49:45;17.13;;;7.47;;
32826;SDS011;51059;42.058;27.986;2023-09-07T01:52:11;23.10;;;8.27;;
32826;SDS011;51059;42.058;27.986;2023-09-07T01:54:37;18.63;;;7.80;;
32826;SDS011;51059;42.058;27.986;2023-09-07T01:57:03;20.00;;;7.97;;
32826;SDS011;51059;42.058;27.986;2023-09-07T01:59:29;16.90;;;7.70;;
32826;SDS011;51059;42.058;27.986;2023-09-07T02:01:56;19.92;;;8.23;;
32826;SDS011;51059;42.058;27.986;2023-09-07T02:04:22;20.23;;;8.65;;
32826;SDS011;51059;42.058;27.986;2023-09-07T02:06:48;14.63;;;8.48;;
32826;SDS011;51059;42.058;27.986;2023-09-07T02:09:14;20.58;;;8.35;;
32826;SDS011;51059;42.058;27.986;2023-09-07T02:11:39;13.63;;;8.52;;
32826;SDS011;51059;42.058;27.986;2023-09-07T02:14:06;19.67;;;8.77;;
32826;SDS011;51059;42.058;27.986;2023-09-07T02:16:33;17.10;;;8.65;;
32826;SDS011;51059;42.058;27.986;2023-09-07T02:19:02;20.55;;;8.75;;
32826;SDS011;51059;42.058;27.986;2023-09-07T02:21:29;22.40;;;9.50;;
32826;SDS011;51059;42.058;27.986;2023-09-07T02:23:56;22.27;;;8.95;;
32826;SDS011;51059;42.058;27.986;2023-09-07T02:26:21;15.45;;;8.52;;
32826;SDS011;51059;42.058;27.986;2023-09-07T02:28:47;16.50;;;9.13;;
32826;SDS011;51059;42.058;27.986;2023-09-07T02:31:13;21.15;;;8.98;;
32826;SDS011;51059;42.058;27.986;2023-09-07T02:33:39;20.93;;;9.13;;
32826;SDS011;51059;42.058;27.986;2023-09-07T02:36:05;20.27;;;9.10;;
32826;SDS011;51059;42.058;27.986;2023-09-07T02:38:31;18.27;;;9.20;;
32826;SDS011;51059;42.058;27.986;2023-09-07T02:40:59;17.43;;;8.97;;
32826;SDS011;51059;42.058;27.986;2023-09-07T02:43:26;21.67;;;9.40;;
32826;SDS011;51059;42.058;27.986;2023-09-07T02:45:52;18.67;;;8.77;;
32826;SDS011;51059;42.058;27.986;2023-09-07T02:48:18;20.25;;;9.25;;
32826;SDS011;51059;42.058;27.986;2023-09-07T02:51:03;19.42;;;9.15;;
32826;SDS011;51059;42.058;27.986;2023-09-07T02:53:29;20.30;;;9.93;;
32826;SDS011;51059;42.058;27.986;2023-09-07T02:55:55;16.17;;;8.85;;
32826;SDS011;51059;42.058;27.986;2023-09-07T02:58:22;18.02;;;9.52;;
32826;SDS011;51059;42.058;27.986;2023-09-07T03:00:49;18.48;;;9.90;;
32826;SDS011;51059;42.058;27.986;2023-09-07T03:03:14;16.60;;;9.45;;
32826;SDS011;51059;42.058;27.986;2023-09-07T03:05:42;17.50;;;9.65;;
32826;SDS011;51059;42.058;27.986;2023-09-07T03:08:08;18.25;;;8.65;;
32826;SDS011;51059;42.058;27.986;2023-09-07T03:10:38;16.80;;;9.75;;
32826;SDS011;51059;42.058;27.986;2023-09-07T03:13:05;12.90;;;9.13;;
32826;SDS011;51059;42.058;27.986;2023-09-07T03:15:31;21.08;;;9.75;;
32826;SDS011;51059;42.058;27.986;2023-09-07T03:17:57;18.15;;;9.75;;
32826;SDS011;51059;42.058;27.986;2023-09-07T03:20:23;17.90;;;9.50;;
32826;SDS011;51059;42.058;27.986;2023-09-07T03:22:50;16.63;;;9.70;;
32826;SDS011;51059;42.058;27.986;2023-09-07T03:25:16;22.35;;;10.05;;
32826;SDS011;51059;42.058;27.986;2023-09-07T03:27:42;15.70;;;9.73;;
32826;SDS011;51059;42.058;27.986;2023-09-07T03:30:08;14.10;;;9.60;;
32826;SDS011;51059;42.058;27.986;2023-09-07T03:32:33;13.07;;;8.95;;
32826;SDS011;51059;42.058;27.986;2023-09-07T03:35:00;21.20;;;8.98;;
32826;SDS011;51059;42.058;27.986;2023-09-07T03:37:30;15.80;;;9.95;;
32826;SDS011;51059;42.058;27.986;2023-09-07T03:39:56;15.68;;;10.25;;
32826;SDS011;51059;42.058;27.986;2023-09-07T03:42:22;19.83;;;9.27;;
32826;SDS011;51059;42.058;27.986;2023-09-07T03:44:48;22.02;;;9.23;;
32826;SDS011;51059;42.058;27.986;2023-09-07T03:47:14;12.57;;;9.75;;
32826;SDS011;51059;42.058;27.986;2023-09-07T03:49:45;15.27;;;8.93;;
32826;SDS011;51059;42.058;27.986;2023-09-07T03:52:11;12.57;;;9.32;;
32826;SDS011;51059;42.058;27.986;2023-09-07T03:54:37;20.60;;;9.80;;
32826;SDS011;51059;42.058;27.986;2023-09-07T03:57:05;20.42;;;9.75;;
32826;SDS011;51059;42.058;27.986;2023-09-07T03:59:30;16.08;;;9.20;;
32826;SDS011;51059;42.058;27.986;2023-09-07T04:01:57;18.58;;;9.10;;
32826;SDS011;51059;42.058;27.986;2023-09-07T04:04:24;16.33;;;9.88;;
32826;SDS011;51059;42.058;27.986;2023-09-07T04:06:56;15.10;;;8.70;;
32826;SDS011;51059;42.058;27.986;2023-09-07T04:09:22;17.02;;;9.43;;
32826;SDS011;51059;42.058;27.986;2023-09-07T04:11:48;13.40;;;8.60;;
32826;SDS011;51059;42.058;27.986;2023-09-07T04:14:14;12.60;;;8.60;;
32826;SDS011;51059;42.058;27.986;2023-09-07T04:16:40;13.27;;;8.52;;
32826;SDS011;51059;42.058;27.986;2023-09-07T04:19:07;14.27;;;7.75;;
32826;SDS011;51059;42.058;27.986;2023-09-07T04:21:35;11.13;;;8.05;;
32826;SDS011;51059;42.058;27.986;2023-09-07T04:24:02;15.70;;;7.97;;
32826;SDS011;51059;42.058;27.986;2023-09-07T04:26:28;18.67;;;7.70;;
32826;SDS011;51059;42.058;27.986;2023-09-07T04:28:54;13.05;;;7.00;;
32826;SDS011;51059;42.058;27.986;2023-09-07T04:31:20;15.27;;;7.72;;
32826;SDS011;51059;42.058;27.986;2023-09-07T04:33:46;15.68;;;7.85;;
32826;SDS011;51059;42.058;27.986;2023-09-07T04:36:13;14.65;;;7.53;;
32826;SDS011;51059;42.058;27.986;2023-09-07T04:38:40;14.15;;;7.57;;
32826;SDS011;51059;42.058;27.986;2023-09-07T04:41:09;15.18;;;8.02;;
32826;SDS011;51059;42.058;27.986;2023-09-07T04:43:36;20.25;;;7.43;;
32826;SDS011;51059;42.058;27.986;2023-09-07T04:46:03;13.50;;;8.23;;
32826;SDS011;51059;42.058;27.986;2023-09-07T04:48:30;17.02;;;7.90;;
32826;SDS011;51059;42.058;27.986;2023-09-07T04:51:03;16.83;;;7.95;;
32826;SDS011;51059;42.058;27.986;2023-09-07T04:53:32;14.98;;;8.07;;
32826;SDS011;51059;42.058;27.986;2023-09-07T04:56:00;12.98;;;8.32;;
32826;SDS011;51059;42.058;27.986;2023-09-07T04:58:27;14.23;;;7.82;;
32826;SDS011;51059;42.058;27.986;2023-09-07T05:00:53;11.32;;;8.07;;
32826;SDS011;51059;42.058;27.986;2023-09-07T05:03:19;10.35;;;7.72;;
32826;SDS011;51059;42.058;27.986;2023-09-07T05:05:46;19.58;;;7.80;;
32826;SDS011;51059;42.058;27.986;2023-09-07T05:08:16;14.38;;;8.02;;
32826;SDS011;51059;42.058;27.986;2023-09-07T05:10:43;12.05;;;7.75;;
32826;SDS011;51059;42.058;27.986;2023-09-07T05:13:10;15.15;;;9.25;;
32826;SDS011;51059;42.058;27.986;2023-09-07T05:15:36;21.38;;;8.75;;
32826;SDS011;51059;42.058;27.986;2023-09-07T05:18:02;17.58;;;9.10;;
32826;SDS011;51059;42.058;27.986;2023-09-07T05:20:31;17.63;;;9.60;;
32826;SDS011;51059;42.058;27.986;2023-09-07T05:22:58;17.17;;;10.43;;
32826;SDS011;51059;42.058;27.986;2023-09-07T05:25:26;16.90;;;10.82;;
32826;SDS011;51059;42.058;27.986;2023-09-07T05:27:52;17.85;;;10.52;;
32826;SDS011;51059;42.058;27.986;2023-09-07T05:30:18;20.85;;;9.88;;
32826;SDS011;51059;42.058;27.986;2023-09-07T05:32:45;19.30;;;9.88;;
32826;SDS011;51059;42.058;27.986;2023-09-07T05:35:11;19.88;;;10.48;;
32826;SDS011;51059;42.058;27.986;2023-09-07T05:37:37;19.20;;;9.48;;
32826;SDS011;51059;42.058;27.986;2023-09-07T05:40:03;15.90;;;9.95;;
32826;SDS011;51059;42.058;27.986;2023-09-07T05:42:29;16.35;;;9.45;;
32826;SDS011;51059;42.058;27.986;2023-09-07T05:44:55;15.57;;;9.23;;
32826;SDS011;51059;42.058;27.986;2023-09-07T05:47:21;18.13;;;9.10;;
32826;SDS011;51059;42.058;27.986;2023-09-07T05:49:48;19.08;;;9.00;;
32826;SDS011;51059;42.058;27.986;2023-09-07T05:52:14;16.27;;;9.13;;
32826;SDS011;51059;42.058;27.986;2023-09-07T05:54:40;20.98;;;9.07;;
32826;SDS011;51059;42.058;27.986;2023-09-07T05:57:06;13.52;;;9.02;;
32826;SDS011;51059;42.058;27.986;2023-09-07T05:59:32;18.67;;;8.30;;
32826;SDS011;51059;42.058;27.986;2023-09-07T06:01:58;13.65;;;8.05;;
32826;SDS011;51059;42.058;27.986;2023-09-07T06:04:23;15.45;;;9.00;;
32826;SDS011;51059;42.058;27.986;2023-09-07T06:06:49;13.05;;;8.68;;
32826;SDS011;51059;42.058;27.986;2023-09-07T06:09:16;15.73;;;8.80;;
32826;SDS011;51059;42.058;27.986;2023-09-07T06:11:42;13.55;;;8.75;;
32826;SDS011;51059;42.058;27.986;2023-09-07T06:14:08;21.30;;;8.75;;
32826;SDS011;51059;42.058;27.986;2023-09-07T06:16:34;15.93;;;8.82;;
32826;SDS011;51059;42.058;27.986;2023-09-07T06:19:00;18.90;;;9.55;;
32826;SDS011;51059;42.058;27.986;2023-09-07T06:21:26;17.05;;;9.05;;
32826;SDS011;51059;42.058;27.986;2023-09-07T06:23:53;18.88;;;9.57;;
32826;SDS011;51059;42.058;27.986;2023-09-07T06:26:19;21.52;;;9.52;;
32826;SDS011;51059;42.058;27.986;2023-09-07T06:28:45;19.15;;;10.65;;
32826;SDS011;51059;42.058;27.986;2023-09-07T06:31:11;17.75;;;9.32;;
32826;SDS011;51059;42.058;27.986;2023-09-07T06:33:37;16.10;;;9.52;;
32826;SDS011;51059;42.058;27.986;2023-09-07T06:36:04;22.70;;;11.38;;
32826;SDS011;51059;42.058;27.986;2023-09-07T06:38:30;19.50;;;9.70;;
32826;SDS011;51059;42.058;27.986;2023-09-07T06:40:56;20.30;;;9.95;;
32826;SDS011;51059;42.058;27.986;2023-09-07T06:43:22;18.10;;;9.43;;
32826;SDS011;51059;42.058;27.986;2023-09-07T06:45:48;18.40;;;10.02;;
32826;SDS011;51059;42.058;27.986;2023-09-07T06:48:14;21.08;;;10.20;;
32826;SDS011;51059;42.058;27.986;2023-09-07T06:50:40;15.05;;;10.23;;
32826;SDS011;51059;42.058;27.986;2023-09-07T06:53:06;16.40;;;9.98;;
32826;SDS011;51059;42.058;27.986;2023-09-07T06:55:32;16.48;;;10.40;;
32826;SDS011;51059;42.058;27.986;2023-09-07T06:57:58;20.52;;;10.10;;
32826;SDS011;51059;42.058;27.986;2023-09-07T07:00:25;19.92;;;10.88;;
32826;SDS011;51059;42.058;27.986;2023-09-07T07:02:51;14.90;;;10.45;;
32826;SDS011;51059;42.058;27.986;2023-09-07T07:05:17;23.00;;;11.27;;
32826;SDS011;51059;42.058;27.986;2023-09-07T07:07:44;21.05;;;11.05;;
32826;SDS011;51059;42.058;27.986;2023-09-07T07:10:10;18.63;;;11.85;;
32826;SDS011;51059;42.058;27.986;2023-09-07T07:12:36;17.42;;;11.18;;
32826;SDS011;51059;42.058;27.986;2023-09-07T07:15:03;17.35;;;10.45;;
32826;SDS011;51059;42.058;27.986;2023-09-07T07:17:31;19.85;;;10.98;;
32826;SDS011;51059;42.058;27.986;2023-09-07T07:20:00;16.25;;;11.40;;
32826;SDS011;51059;42.058;27.986;2023-09-07T07:22:32;28.98;;;11.88;;
32826;SDS011;51059;42.058;27.986;2023-09-07T07:25:00;14.50;;;10.77;;
32826;SDS011;51059;42.058;27.986;2023-09-07T07:27:32;21.75;;;11.02;;
32826;SDS011;51059;42.058;27.986;2023-09-07T07:29:59;16.85;;;11.27;;
32826;SDS011;51059;42.058;27.986;2023-09-07T07:32:27;23.65;;;11.40;;
32826;SDS011;51059;42.058;27.986;2023-09-07T07:34:54;19.73;;;11.55;;
32826;SDS011;51059;42.058;27.986;2023-09-07T07:37:20;23.52;;;11.95;;
32826;SDS011;51059;42.058;27.986;2023-09-07T07:39:45;24.15;;;11.98;;
32826;SDS011;51059;42.058;27.986;2023-09-07T07:42:11;24.52;;;11.88;;
32826;SDS011;51059;42.058;27.986;2023-09-07T07:44:38;19.83;;;11.45;;
32826;SDS011;51059;42.058;27.986;2023-09-07T07:47:05;22.67;;;11.15;;
32826;SDS011;51059;42.058;27.986;2023-09-07T07:49:32;21.50;;;12.43;;
32826;SDS011;51059;42.058;27.986;2023-09-07T07:52:06;18.27;;;11.82;;
32826;SDS011;51059;42.058;27.986;2023-09-07T07:54:33;19.00;;;12.45;;
32826;SDS011;51059;42.058;27.986;2023-09-07T07:56:59;21.45;;;12.63;;
32826;SDS011;51059;42.058;27.986;2023-09-07T07:59:25;25.85;;;12.20;;
32826;SDS011;51059;42.058;27.986;2023-09-07T08:01:51;19.52;;;12.15;;
32826;SDS011;51059;42.058;27.986;2023-09-07T08:04:17;22.65;;;12.20;;
32826;SDS011;51059;42.058;27.986;2023-09-07T08:06:43;18.40;;;11.63;;
32826;SDS011;51059;42.058;27.986;2023-09-07T08:09:09;22.27;;;12.02;;
32826;SDS011;51059;42.058;27.986;2023-09-07T08:11:35;23.90;;;12.38;;
32826;SDS011;51059;42.058;27.986;2023-09-07T08:14:01;19.48;;;12.32;;
32826;SDS011;51059;42.058;27.986;2023-09-07T08:16:29;19.10;;;12.52;;
32826;SDS011;51059;42.058;27.986;2023-09-07T08:18:55;22.13;;;12.05;;
32826;SDS011;51059;42.058;27.986;2023-09-07T08:21:22;19.17;;;12.05;;
32826;SDS011;51059;42.058;27.986;2023-09-07T08:23:48;19.40;;;11.82;;
32826;SDS011;51059;42.058;27.986;2023-09-07T08:26:14;19.17;;;11.68;;
32826;SDS011;51059;42.058;27.986;2023-09-07T08:28:40;25.02;;;12.48;;
32826;SDS011;51059;42.058;27.986;2023-09-07T08:31:06;18.58;;;12.35;;
32826;SDS011;51059;42.058;27.986;2023-09-07T08:33:32;22.35;;;11.68;;
32826;SDS011;51059;42.058;27.986;2023-09-07T08:36:06;18.65;;;11.60;;
32826;SDS011;51059;42.058;27.986;2023-09-07T08:38:35;20.08;;;11.35;;
32826;SDS011;51059;42.058;27.986;2023-09-07T08:41:08;17.85;;;11.15;;
32826;SDS011;51059;42.058;27.986;2023-09-07T08:43:35;19.90;;;12.40;;
32826;SDS011;51059;42.058;27.986;2023-09-07T08:46:14;22.23;;;12.38;;
32826;SDS011;51059;42.058;27.986;2023-09-07T08:48:43;25.42;;;12.43;;
32826;SDS011;51059;42.058;27.986;2023-09-07T08:51:09;17.88;;;12.50;;
32826;SDS011;51059;42.058;27.986;2023-09-07T08:53:39;27.27;;;12.38;;
32826;SDS011;51059;42.058;27.986;2023-09-07T08:56:06;17.60;;;12.13;;
32826;SDS011;51059;42.058;27.986;2023-09-07T08:58:36;20.75;;;12.10;;
32826;SDS011;51059;42.058;27.986;2023-09-07T09:01:03;22.25;;;11.20;;
32826;SDS011;51059;42.058;27.986;2023-09-07T09:03:30;27.92;;;12.55;;
32826;SDS011;51059;42.058;27.986;2023-09-07T09:05:57;20.67;;;11.98;;
32826;SDS011;51059;42.058;27.986;2023-09-07T09:08:22;25.48;;;12.75;;
32826;SDS011;51059;42.058;27.986;2023-09-07T09:10:58;20.30;;;11.70;;
32826;SDS011;51059;42.058;27.986;2023-09-07T09:13:29;23.67;;;11.85;;
32826;SDS011;51059;42.058;27.986;2023-09-07T09:16:01;17.48;;;11.88;;
32826;SDS011;51059;42.058;27.986;2023-09-07T09:18:27;16.50;;;11.25;;
32826;SDS011;51059;42.058;27.986;2023-09-07T09:20:55;20.85;;;12.18;;
32826;SDS011;51059;42.058;27.986;2023-09-07T09:23:21;21.85;;;12.13;;
32826;SDS011;51059;42.058;27.986;2023-09-07T09:25:50;18.92;;;11.35;;
32826;SDS011;51059;42.058;27.986;2023-09-07T09:28:16;19.58;;;11.50;;
32826;SDS011;51059;42.058;27.986;2023-09-07T09:30:42;22.42;;;12.77;;
32826;SDS011;51059;42.058;27.986;2023-09-07T09:33:09;23.67;;;12.30;;
32826;SDS011;51059;42.058;27.986;2023-09-07T09:35:36;19.80;;;11.48;;
32826;SDS011;51059;42.058;27.986;2023-09-07T09:38:03;23.38;;;11.50;;
32826;SDS011;51059;42.058;27.986;2023-09-07T09:40:32;23.30;;;12.45;;
32826;SDS011;51059;42.058;27.986;2023-09-07T09:43:01;16.45;;;12.40;;
32826;SDS011;51059;42.058;27.986;2023-09-07T09:45:29;20.15;;;11.73;;
32826;SDS011;51059;42.058;27.986;2023-09-07T09:47:56;19.92;;;11.52;;
32826;SDS011;51059;42.058;27.986;2023-09-07T09:50:24;21.88;;;12.60;;
32826;SDS011;51059;42.058;27.986;2023-09-07T09:52:50;19.08;;;12.35;;
32826;SDS011;51059;42.058;27.986;2023-09-07T09:55:22;16.73;;;11.85;;
32826;SDS011;51059;42.058;27.986;2023-09-07T09:57:49;22.45;;;12.35;;
32826;SDS011;51059;42.058;27.986;2023-09-07T10:00:17;20.80;;;11.93;;
32826;SDS011;51059;42.058;27.986;2023-09-07T10:02:51;21.48;;;12.98;;
32826;SDS011;51059;42.058;27.986;2023-09-07T10:05:43;23.20;;;12.07;;
32826;SDS011;51059;42.058;27.986;2023-09-07T10:08:13;16.17;;;12.35;;
32826;SDS011;51059;42.058;27.986;2023-09-07T10:10:41;22.75;;;12.25;;
32826;SDS011;51059;42.058;27.986;2023-09-07T10:13:08;21.48;;;12.70;;
32826;SDS011;51059;42.058;27.986;2023-09-07T10:15:33;23.05;;;12.15;;
32826;SDS011;51059;42.058;27.986;2023-09-07T10:18:12;19.52;;;11.65;;
32826;SDS011;51059;42.058;27.986;2023-09-07T10:20:54;24.75;;;11.18;;
32826;SDS011;51059;42.058;27.986;2023-09-07T10:26:11;26.83;;;12.13;;
32826;SDS011;51059;42.058;27.986;2023-09-07T10:28:46;23.88;;;12.15;;
32826;SDS011;51059;42.058;27.986;2023-09-07T10:31:16;27.95;;;12.18;;
32826;SDS011;51059;42.058;27.986;2023-09-07T10:33:49;16.00;;;11.23;;
32826;SDS011;51059;42.058;27.986;2023-09-07T10:36:23;21.40;;;11.07;;
32826;SDS011;51059;42.058;27.986;2023-09-07T10:38:54;20.25;;;10.95;;
32826;SDS011;51059;42.058;27.986;2023-09-07T10:41:21;18.48;;;10.77;;
32826;SDS011;51059;42.058;27.986;2023-09-07T10:43:51;21.88;;;10.75;;
32826;SDS011;51059;42.058;27.986;2023-09-07T10:46:19;22.00;;;11.40;;
32826;SDS011;51059;42.058;27.986;2023-09-07T10:48:50;17.15;;;10.55;;
32826;SDS011;51059;42.058;27.986;2023-09-07T10:51:19;18.52;;;10.27;;
32826;SDS011;51059;42.058;27.986;2023-09-07T10:53:45;19.83;;;10.55;;
32826;SDS011;51059;42.058;27.986;2023-09-07T10:56:11;17.45;;;10.65;;
32826;SDS011;51059;42.058;27.986;2023-09-07T10:58:37;22.35;;;11.10;;
32826;SDS011;51059;42.058;27.986;2023-09-07T11:01:10;20.95;;;10.63;;
32826;SDS011;51059;42.058;27.986;2023-09-07T11:03:36;21.40;;;10.02;;
32826;SDS011;51059;42.058;27.986;2023-09-07T11:06:08;16.45;;;10.30;;
32826;SDS011;51059;42.058;27.986;2023-09-07T11:08:37;18.75;;;9.73;;
32826;SDS011;51059;42.058;27.986;2023-09-07T11:11:03;18.98;;;10.20;;
32826;SDS011;51059;42.058;27.986;2023-09-07T11:13:29;17.98;;;10.13;;
32826;SDS011;51059;42.058;27.986;2023-09-07T11:15:56;20.27;;;9.50;;
32826;SDS011;51059;42.058;27.986;2023-09-07T11:18:39;16.60;;;9.27;;
32826;SDS011;51059;42.058;27.986;2023-09-07T11:21:06;20.75;;;10.02;;
32826;SDS011;51059;42.058;27.986;2023-09-07T11:23:33;16.73;;;10.35;;
32826;SDS011;51059;42.058;27.986;2023-09-07T11:26:05;17.73;;;9.68;;
32826;SDS011;51059;42.058;27.986;2023-09-07T11:28:33;16.50;;;10.38;;
32826;SDS011;51059;42.058;27.986;2023-09-07T11:31:01;18.40;;;10.02;;
32826;SDS011;51059;42.058;27.986;2023-09-07T11:33:30;16.00;;;9.20;;
32826;SDS011;51059;42.058;27.986;2023-09-07T11:35:57;24.90;;;10.25;;
32826;SDS011;51059;42.058;27.986;2023-09-07T11:38:27;17.58;;;10.45;;
32826;SDS011;51059;42.058;27.986;2023-09-07T11:40:55;15.80;;;10.85;;
32826;SDS011;51059;42.058;27.986;2023-09-07T11:43:21;22.05;;;10.70;;
32826;SDS011;51059;42.058;27.986;2023-09-07T11:45:49;17.15;;;10.60;;
32826;SDS011;51059;42.058;27.986;2023-09-07T11:48:22;19.98;;;11.52;;
32826;SDS011;51059;42.058;27.986;2023-09-07T11:50:49;21.30;;;10.70;;
32826;SDS011;51059;42.058;27.986;2023-09-07T11:53:15;22.02;;;10.05;;
32826;SDS011;51059;42.058;27.986;2023-09-07T11:55:41;23.13;;;10.55;;
32826;SDS011;51059;42.058;27.986;2023-09-07T11:58:09;19.20;;;10.85;;
32826;SDS011;51059;42.058;27.986;2023-09-07T12:00:36;20.35;;;11.48;;
32826;SDS011;51059;42.058;27.986;2023-09-07T12:03:06;21.17;;;11.70;;
32826;SDS011;51059;42.058;27.986;2023-09-07T12:05:33;20.30;;;11.98;;
32826;SDS011;51059;42.058;27.986;2023-09-07T12:08:01;21.63;;;11.70;;
32826;SDS011;51059;42.058;27.986;2023-09-07T12:10:29;17.92;;;11.70;;
32826;SDS011;51059;42.058;27.986;2023-09-07T12:12:55;18.55;;;11.30;;
32826;SDS011;51059;42.058;27.986;2023-09-07T12:15:21;25.52;;;12.30;;
32826;SDS011;51059;42.058;27.986;2023-09-07T12:17:47;23.75;;;11.88;;
32826;SDS011;51059;42.058;27.986;2023-09-07T12:20:19;19.95;;;11.73;;
32826;SDS011;51059;42.058;27.986;2023-09-07T12:22:46;20.15;;;11.68;;
32826;SDS011;51059;42.058;27.986;2023-09-07T12:25:15;23.50;;;11.82;;
32826;SDS011;51059;42.058;27.986;2023-09-07T12:27:46;20.20;;;12.10;;
32826;SDS011;51059;42.058;27.986;2023-09-07T12:30:15;23.25;;;12.38;;
32826;SDS011;51059;42.058;27.986;2023-09-07T12:32:43;17.92;;;12.43;;
32826;SDS011;51059;42.058;27.986;2023-09-07T12:35:09;16.58;;;11.48;;
32826;SDS011;51059;42.058;27.986;2023-09-07T12:37:36;20.85;;;12.48;;
32826;SDS011;51059;42.058;27.986;2023-09-07T12:40:04;18.52;;;12.18;;
32826;SDS011;51059;42.058;27.986;2023-09-07T12:42:43;22.92;;;13.27;;
32826;SDS011;51059;42.058;27.986;2023-09-07T12:45:12;23.83;;;12.25;;
32826;SDS011;51059;42.058;27.986;2023-09-07T12:47:42;20.23;;;12.07;;
32826;SDS011;51059;42.058;27.986;2023-09-07T12:50:09;19.77;;;11.40;;
32826;SDS011;51059;42.058;27.986;2023-09-07T12:52:37;24.67;;;13.05;;
32826;SDS011;51059;42.058;27.986;2023-09-07T12:55:05;22.83;;;11.30;;
32826;SDS011;51059;42.058;27.986;2023-09-07T12:57:33;23.50;;;12.02;;
32826;SDS011;51059;42.058;27.986;2023-09-07T13:00:02;23.52;;;12.00;;
32826;SDS011;51059;42.058;27.986;2023-09-07T13:02:32;23.75;;;11.95;;
32826;SDS011;51059;42.058;27.986;2023-09-07T13:04:58;21.85;;;12.77;;
32826;SDS011;51059;42.058;27.986;2023-09-07T13:07:24;18.75;;;13.32;;
32826;SDS011;51059;42.058;27.986;2023-09-07T13:09:52;21.60;;;13.32;;
32826;SDS011;51059;42.058;27.986;2023-09-07T13:12:21;31.88;;;13.43;;
32826;SDS011;51059;42.058;27.986;2023-09-07T13:14:47;26.00;;;13.48;;
32826;SDS011;51059;42.058;27.986;2023-09-07T13:17:13;30.00;;;14.57;;
32826;SDS011;51059;42.058;27.986;2023-09-07T13:19:40;26.38;;;13.95;;
32826;SDS011;51059;42.058;27.986;2023-09-07T13:22:06;23.00;;;14.95;;
32826;SDS011;51059;42.058;27.986;2023-09-07T13:24:36;26.88;;;14.57;;
32826;SDS011;51059;42.058;27.986;2023-09-07T13:27:02;22.70;;;15.02;;
32826;SDS011;51059;42.058;27.986;2023-09-07T13:29:28;22.08;;;15.73;;
32826;SDS011;51059;42.058;27.986;2023-09-07T13:31:55;24.30;;;14.80;;
32826;SDS011;51059;42.058;27.986;2023-09-07T13:34:24;26.00;;;15.43;;
32826;SDS011;51059;42.058;27.986;2023-09-07T13:36:50;23.92;;;15.00;;
32826;SDS011;51059;42.058;27.986;2023-09-07T13:39:16;25.02;;;14.70;;
32826;SDS011;51059;42.058;27.986;2023-09-07T13:41:43;18.45;;;13.00;;
32826;SDS011;51059;42.058;27.986;2023-09-07T13:44:11;18.70;;;12.70;;
32826;SDS011;51059;42.058;27.986;2023-09-07T13:46:37;21.42;;;13.30;;
32826;SDS011;51059;42.058;27.986;2023-09-07T13:49:03;21.42;;;13.68;;
32826;SDS011;51059;42.058;27.986;2023-09-07T13:51:30;16.60;;;12.25;;
32826;SDS011;51059;42.058;27.986;2023-09-07T13:54:05;22.08;;;12.23;;
32826;SDS011;51059;42.058;27.986;2023-09-07T13:56:34;21.05;;;12.43;;
32826;SDS011;51059;42.058;27.986;2023-09-07T13:59:01;17.35;;;12.75;;
32826;SDS011;51059;42.058;27.986;2023-09-07T14:01:27;20.75;;;12.13;;
32826;SDS011;51059;42.058;27.986;2023-09-07T14:03:53;19.25;;;12.23;;
32826;SDS011;51059;42.058;27.986;2023-09-07T14:06:21;21.35;;;12.15;;
32826;SDS011;51059;42.058;27.986;2023-09-07T14:08:50;19.40;;;11.75;;
32826;SDS011;51059;42.058;27.986;2023-09-07T14:11:18;19.75;;;12.55;;
32826;SDS011;51059;42.058;27.986;2023-09-07T14:13:52;21.58;;;10.73;;
32826;SDS011;51059;42.058;27.986;2023-09-07T14:16:19;21.00;;;11.32;;
32826;SDS011;51059;42.058;27.986;2023-09-07T14:18:46;20.38;;;12.25;;
32826;SDS011;51059;42.058;27.986;2023-09-07T14:21:16;23.08;;;11.35;;